Time;durP1;ratioP1;P1;durP2;ratioP2;P2;SDS_P1;SDS_P2;PMS_P1;PMS_P2;Temp;Humidity;BMP_temperature;BMP_pressure;BME280_temperature;BME280_humidity;BME280_pressure;Samples;Min_cycle;Max_cycle;Signal;HPM_P1;HPM_P2
2023/07/04 00:01:04;;;;;;;3.72;1.17;;;;;;;;;;5087023;28;20506;-78
2023/07/04 00:03:30;;;;;;;5.20;1.10;;;;;;;;;;5082134;28;20020;-78
2023/07/04 00:05:56;;;;;;;3.63;1.02;;;;;;;;;;5077448;28;20033;-78
2023/07/04 00:08:23;;;;;;;5.30;1.10;;;;;;;;;;5065322;28;20108;-78
2023/07/04 00:10:51;;;;;;;5.20;1.20;;;;;;;;;;5062803;28;20065;-78
2023/07/04 00:13:18;;;;;;;3.65;1.50;;;;;;;;;;5080886;28;20391;-78
2023/07/04 00:15:48;;;;;;;3.80;1.10;;;;;;;;;;5084260;28;20098;-79
2023/07/04 00:18:14;;;;;;;3.13;0.90;;;;;;;;;;5069393;28;20063;-78
2023/07/04 00:20:40;;;;;;;4.05;1.15;;;;;;;;;;5072359;28;20044;-78
2023/07/04 00:23:06;;;;;;;4.03;1.20;;;;;;;;;;5086384;28;20034;-78
2023/07/04 00:25:33;;;;;;;2.67;0.95;;;;;;;;;;5069170;28;20028;-78
2023/07/04 00:28:02;;;;;;;2.83;1.10;;;;;;;;;;5084408;28;20024;-78
2023/07/04 00:30:28;;;;;;;4.85;1.30;;;;;;;;;;5067065;28;20077;-78
2023/07/04 00:32:54;;;;;;;4.30;1.65;;;;;;;;;;5066740;28;20101;-78
2023/07/04 00:35:19;;;;;;;2.67;1.15;;;;;;;;;;5085094;28;20427;-78
2023/07/04 00:37:45;;;;;;;3.45;1.17;;;;;;;;;;5088152;28;20048;-78
2023/07/04 00:40:12;;;;;;;3.80;1.23;;;;;;;;;;5088458;28;20480;-78
2023/07/04 00:42:37;;;;;;;5.45;1.13;;;;;;;;;;5089652;28;20480;-79
2023/07/04 00:45:20;;;;;;;3.85;1.17;;;;;;;;;;5083027;28;20048;-79
2023/07/04 00:47:53;;;;;;;4.60;1.10;;;;;;;;;;5069079;28;20111;-79
2023/07/04 00:50:27;;;;;;;3.05;1.00;;;;;;;;;;5082409;28;20033;-78
2023/07/04 00:52:55;;;;;;;3.70;1.30;;;;;;;;;;5068273;28;20110;-78
2023/07/04 00:55:21;;;;;;;4.88;1.38;;;;;;;;;;5066487;28;20319;-79
2023/07/04 00:57:47;;;;;;;3.92;1.40;;;;;;;;;;5069007;28;20040;-79
2023/07/04 01:00:20;;;;;;;3.45;1.10;;;;;;;;;;5068050;28;20257;-79
2023/07/04 01:03:03;;;;;;;4.57;1.38;;;;;;;;;;5065393;28;20025;-79
2023/07/04 01:05:48;;;;;;;6.72;1.63;;;;;;;;;;5060474;28;20041;-79
2023/07/04 01:08:22;;;;;;;3.65;1.45;;;;;;;;;;5065192;28;20020;-79
2023/07/04 01:10:49;;;;;;;3.22;1.20;;;;;;;;;;5063329;28;20067;-78
2023/07/04 01:13:38;;;;;;;4.88;1.70;;;;;;;;;;5062437;28;21507;-79
2023/07/04 01:16:11;;;;;;;6.85;1.65;;;;;;;;;;5066673;28;20680;-80
2023/07/04 01:18:43;;;;;;;9.73;1.90;;;;;;;;;;5066303;28;20020;-80
2023/07/04 01:21:10;;;;;;;8.18;1.88;;;;;;;;;;5064445;28;20062;-80
2023/07/04 01:23:47;;;;;;;6.65;1.67;;;;;;;;;;5063637;28;20039;-80
2023/07/04 01:26:44;;;;;;;4.95;1.33;;;;;;;;;;5067686;28;20032;-79
2023/07/04 01:29:13;;;;;;;9.48;1.77;;;;;;;;;;5067589;28;20082;-80
2023/07/04 01:31:40;;;;;;;4.70;1.77;;;;;;;;;;5064606;28;20481;-79
2023/07/04 01:34:08;;;;;;;8.77;2.17;;;;;;;;;;5060649;28;20040;-80
2023/07/04 01:36:37;;;;;;;5.85;2.00;;;;;;;;;;5063160;28;20024;-81
2023/07/04 01:39:03;;;;;;;3.55;1.33;;;;;;;;;;5064645;28;20039;-81
2023/07/04 01:41:30;;;;;;;7.80;1.65;;;;;;;;;;5066095;28;20017;-81
2023/07/04 01:44:08;;;;;;;5.07;1.67;;;;;;;;;;5065669;28;20039;-81
2023/07/04 01:46:35;;;;;;;5.88;1.50;;;;;;;;;;5067017;28;20499;-81
2023/07/04 01:49:01;;;;;;;5.78;1.50;;;;;;;;;;5066962;28;20103;-81
2023/07/04 01:51:34;;;;;;;6.18;1.75;;;;;;;;;;5051039;28;20035;-81
2023/07/04 01:54:00;;;;;;;6.43;1.45;;;;;;;;;;5047754;28;20060;-81
2023/07/04 01:56:27;;;;;;;3.65;1.33;;;;;;;;;;5060093;28;20041;-81
2023/07/04 01:58:52;;;;;;;5.47;1.58;;;;;;;;;;5043505;28;20083;-80
2023/07/04 02:01:18;;;;;;;4.03;1.55;;;;;;;;;;5042434;28;20021;-80
2023/07/04 02:03:43;;;;;;;6.93;1.50;;;;;;;;;;5045161;28;20469;-80
2023/07/04 02:06:09;;;;;;;4.57;1.60;;;;;;;;;;5047644;28;20025;-79
2023/07/04 02:08:34;;;;;;;4.82;1.20;;;;;;;;;;5046990;28;20020;-80
2023/07/04 02:11:00;;;;;;;6.32;1.40;;;;;;;;;;5042093;28;21510;-79
2023/07/04 02:13:26;;;;;;;5.65;1.50;;;;;;;;;;5037327;28;20029;-80
2023/07/04 02:15:51;;;;;;;4.22;1.40;;;;;;;;;;5045496;28;20085;-79
2023/07/04 02:18:17;;;;;;;3.70;1.30;;;;;;;;;;5049621;28;20052;-79
2023/07/04 02:20:42;;;;;;;4.88;1.20;;;;;;;;;;5041073;28;20027;-80
2023/07/04 02:23:08;;;;;;;5.25;1.63;;;;;;;;;;5046553;28;20017;-79
2023/07/04 02:25:38;;;;;;;3.03;1.00;;;;;;;;;;5042842;28;20029;-80
2023/07/04 02:28:04;;;;;;;4.72;1.30;;;;;;;;;;5047626;28;20033;-80
2023/07/04 02:30:29;;;;;;;3.83;1.42;;;;;;;;;;5038487;28;20027;-80
2023/07/04 02:32:54;;;;;;;4.28;1.42;;;;;;;;;;5045662;28;20587;-79
2023/07/04 02:35:20;;;;;;;6.28;1.63;;;;;;;;;;5043168;28;20025;-80
2023/07/04 02:37:45;;;;;;;4.70;1.65;;;;;;;;;;5038291;28;20029;-80
2023/07/04 02:40:11;;;;;;;3.72;1.30;;;;;;;;;;5060718;28;20481;-79
2023/07/04 02:42:36;;;;;;;6.13;1.67;;;;;;;;;;5043806;28;20024;-80
2023/07/04 02:45:03;;;;;;;4.82;1.42;;;;;;;;;;5044952;28;20033;-80
2023/07/04 02:47:29;;;;;;;5.53;1.48;;;;;;;;;;5042469;28;20032;-80
2023/07/04 02:49:54;;;;;;;4.40;1.50;;;;;;;;;;5055236;28;20242;-79
2023/07/04 02:52:21;;;;;;;6.25;1.48;;;;;;;;;;5085227;28;20023;-80
2023/07/04 02:54:46;;;;;;;6.25;2.72;;;;;;;;;;5084866;28;20032;-80
2023/07/04 02:57:15;;;;;;;4.88;1.50;;;;;;;;;;5070756;28;20081;-79
2023/07/04 02:59:41;;;;;;;6.13;1.92;;;;;;;;;;5086383;28;20028;-80
2023/07/04 03:02:06;;;;;;;7.38;1.70;;;;;;;;;;5086127;28;20035;-80
2023/07/04 03:04:32;;;;;;;6.47;2.28;;;;;;;;;;5073288;28;20024;-80
2023/07/04 03:06:57;;;;;;;4.43;1.70;;;;;;;;;;5088400;28;20024;-80
2023/07/04 03:09:23;;;;;;;7.30;1.90;;;;;;;;;;5086246;28;20035;-80
2023/07/04 03:11:48;;;;;;;4.82;1.65;;;;;;;;;;5064925;28;20503;-80
2023/07/04 03:14:14;;;;;;;6.13;1.75;;;;;;;;;;5086042;28;20081;-80
2023/07/04 03:16:39;;;;;;;5.53;1.75;;;;;;;;;;5070860;28;20024;-80
2023/07/04 03:19:04;;;;;;;8.98;2.00;;;;;;;;;;5084096;28;20028;-80
2023/07/04 03:21:30;;;;;;;5.72;1.85;;;;;;;;;;5086977;28;20365;-80
2023/07/04 03:23:55;;;;;;;7.15;2.50;;;;;;;;;;5082544;28;20055;-80
2023/07/04 03:26:21;;;;;;;7.13;2.17;;;;;;;;;;5088408;28;20529;-80
2023/07/04 03:28:46;;;;;;;6.25;2.30;;;;;;;;;;5066711;28;20024;-80
2023/07/04 03:31:11;;;;;;;6.50;2.53;;;;;;;;;;5070972;28;20498;-80
2023/07/04 03:33:37;;;;;;;7.13;2.20;;;;;;;;;;5086630;28;20476;-80
2023/07/04 03:36:02;;;;;;;7.93;3.20;;;;;;;;;;5085576;28;20121;-80
2023/07/04 03:38:28;;;;;;;6.68;2.40;;;;;;;;;;5086064;28;20032;-80
2023/07/04 03:40:54;;;;;;;8.30;2.72;;;;;;;;;;5069040;28;20039;-80
2023/07/04 03:43:19;;;;;;;9.02;2.70;;;;;;;;;;5065451;28;20024;-80
2023/07/04 03:45:46;;;;;;;7.28;2.50;;;;;;;;;;5087081;28;20586;-80
2023/07/04 03:48:11;;;;;;;9.52;2.67;;;;;;;;;;5083736;28;20024;-80
2023/07/04 03:50:38;;;;;;;12.70;3.03;;;;;;;;;;5090175;28;20391;-80
2023/07/04 03:53:03;;;;;;;7.95;2.70;;;;;;;;;;5074365;28;20578;-80
2023/07/04 03:55:29;;;;;;;11.30;2.67;;;;;;;;;;5088355;28;20122;-80
2023/07/04 03:57:54;;;;;;;9.30;3.03;;;;;;;;;;5087663;28;20125;-80
2023/07/04 04:00:20;;;;;;;7.25;2.55;;;;;;;;;;5088828;28;20031;-81
2023/07/04 04:02:45;;;;;;;8.90;2.63;;;;;;;;;;5094296;28;20103;-81
2023/07/04 04:05:12;;;;;;;8.05;3.33;;;;;;;;;;5094035;28;20081;-80
2023/07/04 04:07:37;;;;;;;7.82;2.60;;;;;;;;;;5075044;28;20027;-80
2023/07/04 04:10:03;;;;;;;7.88;3.20;;;;;;;;;;5086088;28;21293;-80
2023/07/04 04:12:28;;;;;;;8.25;2.90;;;;;;;;;;5088200;28;20397;-80
2023/07/04 04:14:54;;;;;;;10.05;2.63;;;;;;;;;;5072271;28;20028;-80
2023/07/04 04:17:19;;;;;;;6.43;2.45;;;;;;;;;;5076217;28;20413;-80
2023/07/04 04:19:44;;;;;;;5.82;2.10;;;;;;;;;;5087642;28;20032;-80
2023/07/04 04:22:10;;;;;;;9.50;2.67;;;;;;;;;;5084529;28;20024;-81
2023/07/04 04:24:37;;;;;;;9.25;2.72;;;;;;;;;;5088635;28;20032;-80
2023/07/04 04:27:08;;;;;;;8.43;2.33;;;;;;;;;;5070584;28;20043;-80
2023/07/04 04:29:33;;;;;;;8.38;2.47;;;;;;;;;;5074196;28;20028;-80
2023/07/04 04:31:59;;;;;;;7.82;2.58;;;;;;;;;;5083195;28;20031;-80
2023/07/04 04:34:24;;;;;;;8.50;2.65;;;;;;;;;;5070580;28;20048;-80
2023/07/04 04:36:50;;;;;;;7.10;2.72;;;;;;;;;;5073755;28;20084;-81
2023/07/04 04:39:16;;;;;;;8.25;2.42;;;;;;;;;;5067486;28;20028;-81
2023/07/04 04:41:41;;;;;;;6.82;2.60;;;;;;;;;;5091201;28;20016;-80
2023/07/04 04:44:07;;;;;;;13.07;2.58;;;;;;;;;;5089417;28;20067;-80
2023/07/04 04:46:32;;;;;;;8.35;2.45;;;;;;;;;;5071235;28;20083;-80
2023/07/04 04:48:58;;;;;;;9.52;2.35;;;;;;;;;;5085288;28;20047;-80
2023/07/04 04:51:24;;;;;;;12.77;2.75;;;;;;;;;;5077624;28;20032;-80
2023/07/04 04:53:49;;;;;;;9.60;2.20;;;;;;;;;;5085891;28;20024;-80
2023/07/04 04:56:15;;;;;;;15.80;3.20;;;;;;;;;;5068764;28;20040;-80
2023/07/04 04:58:43;;;;;;;7.35;2.60;;;;;;;;;;5059097;28;20025;-80
2023/07/04 05:01:17;;;;;;;7.07;2.60;;;;;;;;;;5062287;28;20033;-80
2023/07/04 05:03:43;;;;;;;10.32;3.10;;;;;;;;;;5091270;28;20518;-80
2023/07/04 05:06:09;;;;;;;8.93;3.13;;;;;;;;;;5068651;28;20020;-80
2023/07/04 05:08:35;;;;;;;8.93;3.10;;;;;;;;;;5084924;28;20110;-80
2023/07/04 05:11:04;;;;;;;13.32;2.92;;;;;;;;;;5085597;28;20032;-80
2023/07/04 05:13:30;;;;;;;7.88;2.88;;;;;;;;;;5071225;28;20494;-80
2023/07/04 05:16:07;;;;;;;9.05;2.92;;;;;;;;;;5088839;28;20468;-80
2023/07/04 05:18:35;;;;;;;10.98;2.78;;;;;;;;;;5062444;28;20393;-80
2023/07/04 05:21:01;;;;;;;9.50;3.13;;;;;;;;;;5085823;28;20028;-82
2023/07/04 05:23:27;;;;;;;10.30;2.90;;;;;;;;;;5091045;28;20035;-81
2023/07/04 05:26:04;;;;;;;8.88;2.75;;;;;;;;;;5090268;28;20032;-80
2023/07/04 05:28:30;;;;;;;9.88;3.10;;;;;;;;;;5088806;28;20034;-80
2023/07/04 05:30:57;;;;;;;14.27;3.55;;;;;;;;;;5072119;28;20035;-81
2023/07/04 05:33:23;;;;;;;11.35;3.53;;;;;;;;;;5073013;28;20369;-81
2023/07/04 05:35:48;;;;;;;10.30;3.30;;;;;;;;;;5069270;28;20027;-80
2023/07/04 05:38:14;;;;;;;11.48;3.38;;;;;;;;;;5085159;28;20024;-81
2023/07/04 05:40:40;;;;;;;9.50;3.38;;;;;;;;;;5089774;28;20435;-81
2023/07/04 05:43:05;;;;;;;11.13;3.38;;;;;;;;;;5073380;28;20031;-81
2023/07/04 05:45:30;;;;;;;9.48;3.50;;;;;;;;;;5091170;28;20468;-80
2023/07/04 05:47:56;;;;;;;15.75;4.22;;;;;;;;;;5087091;28;20036;-80
2023/07/04 05:50:21;;;;;;;10.02;3.42;;;;;;;;;;5067707;28;20036;-81
2023/07/04 05:52:47;;;;;;;11.57;3.67;;;;;;;;;;5088647;28;20032;-81
2023/07/04 05:55:12;;;;;;;11.65;4.18;;;;;;;;;;5086436;28;20031;-80
2023/07/04 05:57:37;;;;;;;14.80;4.25;;;;;;;;;;5084829;28;20036;-81
2023/07/04 06:00:05;;;;;;;9.77;4.05;;;;;;;;;;5087655;28;20040;-81
2023/07/04 06:02:31;;;;;;;11.93;3.40;;;;;;;;;;5088805;28;20016;-81
2023/07/04 06:04:57;;;;;;;12.70;3.90;;;;;;;;;;5064518;28;20040;-81
2023/07/04 06:07:29;;;;;;;12.30;3.85;;;;;;;;;;5066622;28;20028;-81
2023/07/04 06:09:54;;;;;;;13.05;3.53;;;;;;;;;;5067364;28;20027;-81
2023/07/04 06:12:20;;;;;;;9.30;3.13;;;;;;;;;;5059839;28;20039;-81
2023/07/04 06:14:45;;;;;;;12.48;3.88;;;;;;;;;;5069096;28;20457;-81
2023/07/04 06:17:10;;;;;;;14.02;3.78;;;;;;;;;;5076220;28;20028;-81
2023/07/04 06:19:36;;;;;;;11.02;3.78;;;;;;;;;;5063189;28;20032;-81
2023/07/04 06:22:05;;;;;;;9.68;3.45;;;;;;;;;;5070638;28;20028;-80
2023/07/04 06:24:30;;;;;;;14.18;3.80;;;;;;;;;;5079670;28;20055;-81
2023/07/04 06:26:56;;;;;;;11.88;3.33;;;;;;;;;;5087556;28;20407;-81
2023/07/04 06:29:22;;;;;;;12.80;3.58;;;;;;;;;;5089087;28;20024;-81
2023/07/04 06:31:48;;;;;;;9.20;3.35;;;;;;;;;;5068628;28;20028;-81
2023/07/04 06:34:14;;;;;;;11.73;3.60;;;;;;;;;;5069292;28;20060;-81
2023/07/04 06:36:40;;;;;;;11.70;3.17;;;;;;;;;;5067942;28;20062;-80
2023/07/04 06:39:06;;;;;;;13.20;3.72;;;;;;;;;;5069782;28;20052;-80
2023/07/04 06:41:31;;;;;;;10.88;3.25;;;;;;;;;;5065686;28;20562;-80
2023/07/04 06:43:57;;;;;;;14.05;3.30;;;;;;;;;;5082621;28;20095;-80
2023/07/04 06:46:22;;;;;;;14.00;4.00;;;;;;;;;;5092389;28;20057;-81
2023/07/04 06:48:49;;;;;;;10.75;3.13;;;;;;;;;;5048123;28;20081;-81
2023/07/04 06:51:16;;;;;;;11.48;3.67;;;;;;;;;;5074661;28;20436;-81
2023/07/04 06:53:43;;;;;;;14.57;3.60;;;;;;;;;;5064970;28;20381;-81
2023/07/04 06:56:14;;;;;;;16.48;4.22;;;;;;;;;;5048143;28;20441;-81
2023/07/04 06:58:41;;;;;;;11.60;3.17;;;;;;;;;;5056881;28;20939;-81
2023/07/04 07:01:08;;;;;;;11.10;2.90;;;;;;;;;;5055475;28;20032;-80
2023/07/04 07:03:33;;;;;;;11.68;3.28;;;;;;;;;;5059259;28;20727;-80
2023/07/04 07:06:08;;;;;;;11.82;3.28;;;;;;;;;;5060015;28;20029;-81
2023/07/04 07:08:34;;;;;;;9.90;3.50;;;;;;;;;;5052652;28;20374;-80
2023/07/04 07:11:09;;;;;;;12.63;3.25;;;;;;;;;;5054442;28;20576;-81
2023/07/04 07:13:35;;;;;;;11.68;3.00;;;;;;;;;;5054397;28;20027;-81
2023/07/04 07:16:05;;;;;;;12.23;3.00;;;;;;;;;;5056255;28;20032;-80
2023/07/04 07:18:32;;;;;;;9.35;2.35;;;;;;;;;;5057858;28;20124;-80
2023/07/04 07:20:58;;;;;;;9.35;2.47;;;;;;;;;;5059415;28;20043;-82
2023/07/04 07:23:24;;;;;;;9.75;2.70;;;;;;;;;;5052333;28;20774;-81
2023/07/04 07:25:56;;;;;;;9.63;2.75;;;;;;;;;;5072985;28;20029;-80
2023/07/04 07:28:26;;;;;;;11.52;3.05;;;;;;;;;;5067812;28;20476;-81
2023/07/04 07:31:14;;;;;;;6.57;2.35;;;;;;;;;;5073785;28;20047;-81
2023/07/04 07:33:41;;;;;;;9.93;2.53;;;;;;;;;;5063038;28;20512;-81
2023/07/04 07:36:12;;;;;;;14.88;2.90;;;;;;;;;;5067349;28;20027;-80
2023/07/04 07:38:37;;;;;;;14.00;3.45;;;;;;;;;;5062732;28;20065;-81
2023/07/04 07:41:05;;;;;;;11.32;3.00;;;;;;;;;;5072859;28;20052;-81
2023/07/04 07:43:31;;;;;;;9.55;2.70;;;;;;;;;;5086244;28;20034;-82
2023/07/04 07:45:56;;;;;;;8.35;2.97;;;;;;;;;;5067680;28;20033;-81
2023/07/04 07:48:22;;;;;;;9.77;2.50;;;;;;;;;;5069158;28;20035;-81
2023/07/04 07:50:48;;;;;;;10.82;2.60;;;;;;;;;;5085277;28;20032;-81
2023/07/04 07:53:14;;;;;;;9.13;2.45;;;;;;;;;;5090412;28;20032;-81
2023/07/04 07:55:40;;;;;;;11.10;2.83;;;;;;;;;;5074599;28;20495;-81
2023/07/04 07:58:05;;;;;;;9.60;2.60;;;;;;;;;;5087856;28;20077;-81
2023/07/04 08:00:31;;;;;;;10.82;2.58;;;;;;;;;;5071462;28;20398;-81
2023/07/04 08:02:57;;;;;;;7.72;2.20;;;;;;;;;;5084511;28;20016;-81
2023/07/04 08:05:22;;;;;;;10.45;2.35;;;;;;;;;;5091576;28;20056;-81
2023/07/04 08:07:47;;;;;;;8.65;2.28;;;;;;;;;;5085352;28;20389;-82
2023/07/04 08:10:13;;;;;;;8.23;2.30;;;;;;;;;;5089696;28;20062;-80
2023/07/04 08:12:38;;;;;;;9.30;2.30;;;;;;;;;;5090118;28;20469;-81
2023/07/04 08:15:04;;;;;;;9.65;2.25;;;;;;;;;;5093375;28;20072;-81
2023/07/04 08:17:30;;;;;;;6.28;2.33;;;;;;;;;;5093087;28;20484;-81
2023/07/04 08:19:55;;;;;;;7.90;1.83;;;;;;;;;;5087814;28;20036;-81
2023/07/04 08:22:20;;;;;;;8.23;1.92;;;;;;;;;;5071296;28;20484;-80
2023/07/04 08:24:46;;;;;;;6.38;1.77;;;;;;;;;;5072797;28;20070;-81
2023/07/04 08:27:11;;;;;;;10.20;2.00;;;;;;;;;;5087596;28;20027;-81
2023/07/04 08:29:36;;;;;;;7.07;2.05;;;;;;;;;;5067752;28;20021;-81
2023/07/04 08:32:02;;;;;;;7.50;1.85;;;;;;;;;;5067212;28;20055;-80
2023/07/04 08:34:28;;;;;;;5.55;2.22;;;;;;;;;;5089353;28;20020;-81
2023/07/04 08:36:53;;;;;;;6.90;2.10;;;;;;;;;;5092905;28;20040;-81
2023/07/04 08:39:19;;;;;;;7.75;1.60;;;;;;;;;;5090982;28;20058;-81
2023/07/04 08:42:03;;;;;;;6.60;1.90;;;;;;;;;;5058071;28;20033;-81
2023/07/04 08:44:43;;;;;;;4.80;2.10;;;;;;;;;;5066132;28;20020;-81
2023/07/04 08:47:12;;;;;;;6.82;1.75;;;;;;;;;;5072585;28;20024;-81
2023/07/04 08:49:50;;;;;;;9.63;2.30;;;;;;;;;;5070870;28;20476;-81
2023/07/04 08:52:23;;;;;;;6.88;1.70;;;;;;;;;;5070808;28;20026;-81
2023/07/04 08:54:52;;;;;;;6.35;1.70;;;;;;;;;;5070617;28;20032;-81
2023/07/04 08:57:21;;;;;;;7.20;1.60;;;;;;;;;;5071845;28;20115;-81
2023/07/04 08:59:51;;;;;;;5.75;2.35;;;;;;;;;;5090550;28;20032;-81
2023/07/04 09:02:29;;;;;;;8.15;1.80;;;;;;;;;;5084835;28;20039;-81
2023/07/04 09:05:06;;;;;;;3.38;1.30;;;;;;;;;;5090829;28;20063;-81
2023/07/04 09:07:42;;;;;;;7.35;1.80;;;;;;;;;;5070871;28;20031;-81
2023/07/04 09:10:23;;;;;;;8.82;1.70;;;;;;;;;;5089463;28;20028;-81
2023/07/04 09:12:49;;;;;;;5.18;1.70;;;;;;;;;;5070517;28;20032;-82
2023/07/04 09:15:31;;;;;;;7.10;2.45;;;;;;;;;;5073353;28;20027;-81
2023/07/04 09:18:02;;;;;;;6.38;1.50;;;;;;;;;;5090934;28;20023;-81
2023/07/04 09:20:31;;;;;;;5.43;1.80;;;;;;;;;;5086473;28;20020;-81
2023/07/04 09:22:56;;;;;;;7.65;1.67;;;;;;;;;;5090220;28;20044;-82
2023/07/04 09:25:22;;;;;;;7.95;1.70;;;;;;;;;;5067402;28;20082;-81
2023/07/04 09:27:48;;;;;;;5.50;1.70;;;;;;;;;;5074364;28;20373;-81
2023/07/04 09:30:14;;;;;;;7.65;1.90;;;;;;;;;;5085156;28;20047;-81
2023/07/04 09:32:40;;;;;;;8.65;1.95;;;;;;;;;;5090681;28;20055;-81
2023/07/04 09:35:06;;;;;;;8.50;1.90;;;;;;;;;;5083073;28;20074;-81
2023/07/04 09:37:32;;;;;;;5.60;2.00;;;;;;;;;;5089795;28;20024;-82
2023/07/04 09:40:00;;;;;;;9.32;1.88;;;;;;;;;;5066548;28;20027;-81
2023/07/04 09:42:31;;;;;;;8.48;2.10;;;;;;;;;;5070553;28;20028;-81
2023/07/04 09:45:05;;;;;;;5.40;1.50;;;;;;;;;;5079635;28;20052;-81
2023/07/04 09:47:31;;;;;;;7.53;1.70;;;;;;;;;;5090304;28;20047;-82
2023/07/04 09:50:15;;;;;;;8.05;2.15;;;;;;;;;;5075450;28;20492;-80
2023/07/04 09:52:42;;;;;;;6.68;1.80;;;;;;;;;;5066537;28;20024;-81
2023/07/04 09:55:23;;;;;;;7.00;1.77;;;;;;;;;;5066927;28;20150;-81
2023/07/04 09:57:48;;;;;;;5.18;1.88;;;;;;;;;;5089375;28;20020;-81
2023/07/04 10:00:24;;;;;;;6.10;1.98;;;;;;;;;;5069666;28;20031;-81
2023/07/04 10:02:55;;;;;;;6.60;1.75;;;;;;;;;;5079491;28;20061;-82
2023/07/04 10:05:23;;;;;;;5.78;1.63;;;;;;;;;;5076983;28;20035;-82
2023/07/04 10:08:06;;;;;;;6.50;1.83;;;;;;;;;;5075071;28;20074;-81
2023/07/04 10:10:38;;;;;;;5.38;1.80;;;;;;;;;;5069173;28;20022;-81
2023/07/04 10:13:08;;;;;;;10.15;1.95;;;;;;;;;;5078713;28;20077;-81
2023/07/04 10:15:43;;;;;;;6.00;1.65;;;;;;;;;;5092345;28;20058;-81
2023/07/04 10:18:29;;;;;;;7.60;1.90;;;;;;;;;;5069729;28;20472;-81
2023/07/04 10:20:56;;;;;;;6.95;1.55;;;;;;;;;;5071625;28;20032;-81
2023/07/04 10:23:22;;;;;;;5.03;1.42;;;;;;;;;;5093762;28;20480;-81
2023/07/04 10:25:52;;;;;;;7.07;2.00;;;;;;;;;;5073973;28;20047;-81
2023/07/04 10:28:21;;;;;;;5.50;1.73;;;;;;;;;;5092793;28;20044;-80
2023/07/04 10:30:51;;;;;;;4.78;1.63;;;;;;;;;;5075877;28;20050;-81
2023/07/04 10:33:24;;;;;;;5.55;1.50;;;;;;;;;;5091036;28;20020;-81
2023/07/04 10:35:50;;;;;;;7.55;1.83;;;;;;;;;;5068965;28;20084;-80
2023/07/04 10:38:44;;;;;;;4.10;1.25;;;;;;;;;;5063593;28;20027;-80
2023/07/04 10:41:18;;;;;;;7.00;1.67;;;;;;;;;;5090904;28;20110;-80
2023/07/04 10:43:48;;;;;;;5.95;2.20;;;;;;;;;;5086270;28;20028;-80
2023/07/04 10:46:21;;;;;;;7.40;2.28;;;;;;;;;;5090415;28;20035;-80
2023/07/04 10:48:52;;;;;;;4.82;1.80;;;;;;;;;;5084785;28;20021;-79
2023/07/04 10:51:27;;;;;;;4.45;1.40;;;;;;;;;;5054391;28;20427;-79
2023/07/04 10:53:52;;;;;;;6.85;1.70;;;;;;;;;;5049889;28;20036;-79
2023/07/04 10:56:24;;;;;;;6.55;1.80;;;;;;;;;;5042127;28;20017;-80
2023/07/04 10:58:54;;;;;;;5.07;1.75;;;;;;;;;;5049182;28;20435;-79
2023/07/04 11:01:24;;;;;;;4.60;1.42;;;;;;;;;;5050303;28;20029;-80
2023/07/04 11:03:57;;;;;;;5.35;1.70;;;;;;;;;;5051206;28;20024;-79
2023/07/04 11:06:40;;;;;;;7.13;1.50;;;;;;;;;;5054674;28;20366;-79
2023/07/04 11:09:09;;;;;;;7.32;1.77;;;;;;;;;;5047340;28;20051;-79
2023/07/04 11:11:37;;;;;;;10.27;2.05;;;;;;;;;;5048674;28;20052;-79
2023/07/04 11:14:07;;;;;;;4.57;1.50;;;;;;;;;;5045353;28;20028;-79
2023/07/04 11:16:39;;;;;;;5.35;1.65;;;;;;;;;;5048722;28;20033;-79
2023/07/04 11:19:19;;;;;;;6.38;2.08;;;;;;;;;;5051986;28;20092;-79
2023/07/04 11:22:05;;;;;;;6.03;1.60;;;;;;;;;;5054021;28;20381;-79
2023/07/04 11:24:41;;;;;;;9.63;1.70;;;;;;;;;;5042249;28;20931;-79
2023/07/04 11:27:13;;;;;;;4.05;1.40;;;;;;;;;;5042596;28;20024;-79
2023/07/04 11:29:53;;;;;;;4.57;1.52;;;;;;;;;;5051885;28;20074;-79
2023/07/04 11:32:25;;;;;;;6.57;1.80;;;;;;;;;;5046208;28;20040;-79
2023/07/04 11:35:17;;;;;;;6.18;1.80;;;;;;;;;;5049256;28;20078;-79
2023/07/04 11:37:54;;;;;;;4.65;1.48;;;;;;;;;;5049211;28;20033;-78
2023/07/04 11:40:25;;;;;;;5.00;1.50;;;;;;;;;;5047115;28;20029;-78
2023/07/04 11:42:53;;;;;;;4.25;1.55;;;;;;;;;;5049009;28;20020;-79
2023/07/04 11:45:21;;;;;;;4.32;1.30;;;;;;;;;;5049112;28;20025;-79
2023/07/04 11:47:52;;;;;;;6.72;1.40;;;;;;;;;;5047445;28;20449;-78
2023/07/04 11:50:34;;;;;;;4.85;1.45;;;;;;;;;;5058731;28;20034;-79
2023/07/04 11:53:01;;;;;;;5.47;1.50;;;;;;;;;;5071548;28;20061;-79
2023/07/04 11:55:33;;;;;;;5.50;1.60;;;;;;;;;;5071212;28;20039;-79
2023/07/04 11:58:07;;;;;;;4.25;1.50;;;;;;;;;;5089734;28;20039;-79
2023/07/04 12:00:35;;;;;;;5.22;1.38;;;;;;;;;;5091645;28;20116;-79
2023/07/04 12:03:15;;;;;;;6.85;1.60;;;;;;;;;;5091484;28;20024;-79
2023/07/04 12:05:42;;;;;;;7.43;1.67;;;;;;;;;;5084379;28;20693;-78
2023/07/04 12:08:14;;;;;;;5.05;1.52;;;;;;;;;;5088448;28;20507;-78
2023/07/04 12:10:39;;;;;;;4.07;1.35;;;;;;;;;;5086829;28;20020;-78
2023/07/04 12:13:07;;;;;;;3.65;1.45;;;;;;;;;;5090602;28;20031;-78
2023/07/04 12:15:35;;;;;;;4.07;1.55;;;;;;;;;;5090428;28;20412;-78
2023/07/04 12:18:14;;;;;;;5.22;1.70;;;;;;;;;;5087566;28;20032;-79
2023/07/04 12:20:40;;;;;;;6.50;1.63;;;;;;;;;;5088789;28;20032;-79
2023/07/04 12:23:09;;;;;;;5.13;1.75;;;;;;;;;;5073508;28;20107;-79
2023/07/04 12:25:41;;;;;;;5.18;1.90;;;;;;;;;;5070314;28;20485;-79
2023/07/04 12:28:10;;;;;;;5.88;2.00;;;;;;;;;;5089879;28;20046;-79
2023/07/04 12:30:39;;;;;;;5.68;1.98;;;;;;;;;;5087103;28;20115;-78
2023/07/04 12:33:06;;;;;;;4.20;1.88;;;;;;;;;;5093773;28;20411;-78
2023/07/04 12:35:38;;;;;;;6.35;1.88;;;;;;;;;;5054946;28;20120;-78
2023/07/04 12:38:03;;;;;;;5.82;1.67;;;;;;;;;;5074150;28;20141;-78
2023/07/04 12:40:30;;;;;;;5.75;2.50;;;;;;;;;;5076211;28;20451;-78
2023/07/04 12:43:01;;;;;;;5.68;1.88;;;;;;;;;;5092183;28;20495;-78
2023/07/04 12:45:27;;;;;;;6.00;1.80;;;;;;;;;;5094606;28;20023;-78
2023/07/04 12:47:57;;;;;;;6.45;1.90;;;;;;;;;;5073951;28;20600;-77
2023/07/04 12:50:23;;;;;;;4.63;2.10;;;;;;;;;;5093600;28;20042;-77
2023/07/04 12:52:50;;;;;;;7.50;2.20;;;;;;;;;;5090574;28;20384;-77
2023/07/04 12:55:36;;;;;;;5.00;2.00;;;;;;;;;;5088038;28;20136;-78
2023/07/04 12:58:04;;;;;;;6.93;2.15;;;;;;;;;;5072333;28;20024;-77
2023/07/04 13:00:33;;;;;;;5.35;1.98;;;;;;;;;;5086813;28;20027;-78
2023/07/04 13:03:14;;;;;;;5.30;1.90;;;;;;;;;;5074075;28;20020;-78
2023/07/04 13:05:49;;;;;;;5.93;2.22;;;;;;;;;;5093123;28;20044;-78
2023/07/04 13:08:18;;;;;;;5.85;2.22;;;;;;;;;;5092305;28;20396;-78
2023/07/04 13:10:48;;;;;;;5.18;2.00;;;;;;;;;;5075807;28;20368;-78
2023/07/04 13:13:38;;;;;;;6.25;2.22;;;;;;;;;;5087245;28;20038;-78
2023/07/04 13:16:29;;;;;;;4.30;2.20;;;;;;;;;;5052356;28;20396;-78
2023/07/04 13:19:13;;;;;;;7.00;2.15;;;;;;;;;;5080581;28;20028;-78
2023/07/04 13:21:41;;;;;;;6.10;2.38;;;;;;;;;;5072528;28;20031;-78
2023/07/04 13:24:09;;;;;;;6.43;2.35;;;;;;;;;;5091378;28;20024;-78
2023/07/04 13:26:37;;;;;;;6.28;2.28;;;;;;;;;;5070328;28;20024;-78
2023/07/04 13:29:22;;;;;;;7.10;2.25;;;;;;;;;;5072992;28;20028;-78
2023/07/04 13:31:48;;;;;;;4.63;2.10;;;;;;;;;;5085743;28;20024;-78
2023/07/04 13:34:15;;;;;;;5.28;2.03;;;;;;;;;;5090130;28;20107;-78
2023/07/04 13:36:46;;;;;;;8.43;2.10;;;;;;;;;;5075804;28;20024;-79
2023/07/04 13:39:11;;;;;;;7.68;1.92;;;;;;;;;;5072636;28;20487;-79
2023/07/04 13:41:37;;;;;;;5.75;2.05;;;;;;;;;;5074101;28;20035;-77
2023/07/04 13:44:04;;;;;;;6.05;2.30;;;;;;;;;;5072918;28;20101;-78
2023/07/04 13:46:30;;;;;;;6.13;2.38;;;;;;;;;;5075085;28;20031;-78
2023/07/04 13:48:56;;;;;;;5.65;2.10;;;;;;;;;;5091116;28;20039;-78
2023/07/04 13:51:23;;;;;;;5.50;2.00;;;;;;;;;;5071776;28;20069;-79
2023/07/04 13:53:50;;;;;;;5.28;2.10;;;;;;;;;;5073488;28;20488;-78
2023/07/04 13:56:15;;;;;;;5.93;2.65;;;;;;;;;;5088261;28;20393;-79
2023/07/04 13:58:40;;;;;;;5.80;2.60;;;;;;;;;;5091474;28;20016;-78
2023/07/04 14:01:06;;;;;;;6.15;2.47;;;;;;;;;;5092747;28;20472;-79
2023/07/04 14:03:33;;;;;;;6.68;2.60;;;;;;;;;;5089636;28;20045;-79
2023/07/04 14:06:00;;;;;;;5.85;2.63;;;;;;;;;;5091724;28;20028;-78
2023/07/04 14:08:28;;;;;;;7.68;2.95;;;;;;;;;;5091304;28;20483;-78
2023/07/04 14:11:09;;;;;;;5.30;2.85;;;;;;;;;;5060036;28;20054;-78
2023/07/04 14:13:36;;;;;;;8.20;2.70;;;;;;;;;;5079540;28;20107;-78
2023/07/04 14:16:03;;;;;;;5.78;2.40;;;;;;;;;;5068778;28;20020;-79
2023/07/04 14:18:29;;;;;;;5.40;2.45;;;;;;;;;;5088227;28;20035;-78
2023/07/04 14:20:56;;;;;;;7.35;2.90;;;;;;;;;;5071320;28;20020;-78
2023/07/04 14:23:21;;;;;;;8.00;3.25;;;;;;;;;;5067937;28;20531;-78
2023/07/04 14:25:47;;;;;;;5.70;2.90;;;;;;;;;;5085654;28;20118;-78
2023/07/04 14:28:12;;;;;;;7.85;3.08;;;;;;;;;;5065327;28;20062;-78
2023/07/04 14:30:39;;;;;;;8.48;3.38;;;;;;;;;;5083839;28;20036;-78
2023/07/04 14:33:05;;;;;;;8.07;2.88;;;;;;;;;;5084239;28;20023;-77
2023/07/04 14:35:30;;;;;;;6.25;2.63;;;;;;;;;;5070887;28;20020;-78
2023/07/04 14:37:58;;;;;;;8.35;2.90;;;;;;;;;;5069703;28;20205;-77
2023/07/04 14:40:25;;;;;;;6.47;2.60;;;;;;;;;;5087482;28;20031;-77
2023/07/04 14:42:50;;;;;;;8.43;2.88;;;;;;;;;;5083270;28;20557;-78
2023/07/04 14:45:16;;;;;;;7.45;2.65;;;;;;;;;;5083433;28;20027;-77
2023/07/04 14:47:41;;;;;;;6.07;3.17;;;;;;;;;;5086737;28;20040;-78
2023/07/04 14:50:07;;;;;;;10.30;3.70;;;;;;;;;;5082021;28;20035;-77